createdAt,value
2019-05-09T12:42:03.076Z,24.1348
2019-05-09T12:42:11.380Z,24.0921
2019-05-09T12:42:19.220Z,24.1482
2019-05-09T12:42:28.997Z,24.1054
2019-05-09T12:42:39.298Z,24.2042
2019-05-09T12:42:50.091Z,24.4018
2019-05-09T12:42:58.142Z,24.6021
2019-05-09T12:43:28.299Z,24.3298
2019-05-09T12:43:38.193Z,24.0761
2019-05-09T12:43:46.148Z,24.0467
2019-05-09T12:43:54.233Z,24.0333
2019-05-09T12:44:02.188Z,24.1188
2019-05-09T12:44:10.162Z,24.1909
2019-05-09T12:44:18.581Z,24.2336
2019-05-09T12:44:28.638Z,24.1749
2019-05-09T12:44:36.238Z,24.1348
2019-05-09T12:44:44.167Z,24.1749
2019-05-09T12:44:52.176Z,24.1482
2019-05-09T12:45:00.170Z,24.0761
2019-05-09T12:45:08.416Z,24.1054
2019-05-09T12:45:17.989Z,24.1482
2019-05-09T12:45:26.173Z,24.5006
2019-05-09T12:45:34.172Z,24.5567
2019-05-09T12:45:42.215Z,24.6021
2019-05-09T12:45:50.154Z,24.5407
2019-05-09T12:45:58.156Z,24.3725
2019-05-09T12:46:08.639Z,24.2737
2019-05-09T12:46:16.161Z,24.2737
2019-05-09T12:46:24.188Z,24.3858
2019-05-09T12:46:32.243Z,24.4286
2019-05-09T12:46:40.175Z,24.5006
2019-05-09T12:46:48.996Z,24.9119
2019-05-09T12:46:58.112Z,24.7570
2019-05-09T12:47:06.331Z,25.0080
2019-05-09T12:47:14.165Z,25.0240
2019-05-09T12:47:22.147Z,24.9947
2019-05-09T12:47:30.156Z,24.9519
2019-05-09T12:47:39.781Z,24.9519
2019-05-09T12:47:48.175Z,24.9252
2019-05-09T12:48:10.159Z,24.8531
2019-05-09T12:48:19.486Z,24.8398
2019-05-09T12:48:27.882Z,24.9119
2019-05-09T12:48:36.147Z,24.9252
2019-05-09T12:48:44.157Z,24.9252
2019-05-09T12:48:52.221Z,24.8959
2019-05-09T12:49:00.197Z,24.8959
2019-05-09T12:49:08.982Z,24.8691
2019-05-09T12:49:25.166Z,24.9119
2019-05-09T12:49:33.164Z,24.8959
2019-05-09T12:49:41.160Z,24.8959
2019-05-09T12:53:48.888Z,25.0240
2019-05-09T12:53:58.304Z,28.9014
2019-05-09T12:54:08.398Z,28.0682
2019-05-09T12:54:18.771Z,27.3579
2019-05-09T12:54:27.923Z,26.8078
2019-05-09T12:54:38.493Z,26.5648
2019-05-09T12:54:48.350Z,26.5087
2019-05-09T12:54:58.291Z,26.2711
2019-05-09T12:55:08.194Z,25.9987
2019-05-09T12:55:17.858Z,25.7610
2019-05-09T12:55:27.602Z,25.6489
2019-05-09T12:55:35.462Z,25.3925
2019-05-09T12:55:43.452Z,25.3071
2019-05-09T12:55:51.482Z,25.2377
2019-05-09T12:55:59.481Z,25.0641
2019-05-09T12:56:08.194Z,24.9813
2019-05-09T12:56:18.727Z,25.0080
2019-05-09T12:56:28.565Z,24.9680
2019-05-09T12:56:38.494Z,24.8531
2019-05-09T12:56:48.510Z,24.6982
2019-05-09T12:56:59.191Z,24.6982
2019-05-09T12:57:08.077Z,24.7276
2019-05-09T12:57:19.168Z,24.7276
2019-05-09T12:57:28.867Z,24.7837
2019-05-09T12:57:38.688Z,24.7837
2019-05-09T12:57:48.865Z,24.6982
2019-05-09T12:57:59.479Z,24.5861
2019-05-09T12:58:09.747Z,24.5567
2019-05-09T12:58:17.845Z,24.5140
2019-05-09T12:58:27.662Z,24.5727
2019-05-09T12:58:35.474Z,24.5006
2019-05-09T12:58:43.501Z,24.5567
2019-05-09T12:58:51.535Z,24.4846
2019-05-09T12:58:59.470Z,24.5140
2019-05-09T12:59:08.796Z,24.5006
2019-05-09T12:59:18.754Z,24.5567
2019-05-09T12:59:28.694Z,24.5861
2019-05-09T12:59:48.162Z,24.6582
2019-05-09T12:59:52.969Z,26.5221
2019-05-09T13:00:01.474Z,26.0414
2019-05-09T13:00:09.457Z,27.3446
2019-05-09T13:00:18.724Z,26.5969
2019-05-09T13:00:28.389Z,27.4166
2019-05-09T13:00:38.450Z,26.8212
2019-05-09T13:00:49.240Z,26.2844
2019-05-09T13:01:00.778Z,25.5180
2019-05-09T13:01:08.529Z,25.3071
2019-05-09T13:05:38.885Z,18.0091
2019-05-09T13:09:11.475Z,21.0319
2019-05-09T13:09:19.268Z,21.1334
2019-05-09T13:09:28.622Z,21.2455
2019-05-09T13:09:36.191Z,21.3443
2019-05-09T13:09:44.204Z,21.4565
2019-05-09T13:11:13.752Z,22.0653
2019-05-09T13:11:21.232Z,22.1107
2019-05-09T13:13:41.536Z,22.9572
2019-05-09T13:13:49.255Z,23.1708
2019-05-09T13:13:57.200Z,23.2563
2019-05-09T13:14:05.198Z,23.3818
2019-05-09T13:14:13.262Z,23.5367
2019-05-09T13:15:23.603Z,23.8064
2019-05-09T13:15:23.603Z,23.6381
2019-05-09T13:19:58.472Z,20.8343
2019-05-09T13:20:07.937Z,20.1133
2019-05-09T13:20:30.954Z,19.1814
2019-05-09T13:22:18.519Z,18.4604
2019-05-09T13:22:18.519Z,18.5725
2019-05-09T13:22:28.346Z,19.0665
2019-05-09T13:22:37.412Z,19.5766
2019-05-09T13:22:47.684Z,19.6887
2019-05-09T13:22:58.850Z,19.8436
2019-05-09T13:23:14.488Z,19.9744
2019-05-09T13:23:31.889Z,20.1721
2019-05-09T13:23:40.541Z,20.4952
